Emprendedora — J7CO2 — position and weather

sailwx.info

Track history (hours):
 
Tides and Currents Weather Stations Pressure Air Temp Water Temp Dewpoint Dewpoint Depression Visibility Wind Speed Wind Dir Waves Ship Positions

Emprendedora

Last reported at 2018-Jan-19 01:00 UTC. Time now 2018-Jan-19 01:15 UTC.
Position N 17°55' W 063°05'.

Length 77 m; draft 3.1 m.

Type: . MMSI: 325631000.

Date/timePositionNaut miles runAvg speedWind from/ knotsBaromVisibWave heightAir tempDewpointWater temp
2018-Jan-19 01:00N 17°55' W 063°05'5 9.3
2018-Jan-19 00:30N 17°59' W 063°05'2 4.4
2018-Jan-18 23:58N 18°01' W 063°03'0 0.0
2018-Jan-18 23:30N 18°01' W 063°03'0 0.0
2018-Jan-18 22:46N 18°01' W 063°03'0 0.0
2018-Jan-18 22:30N 18°01' W 063°03'0 0.0
2018-Jan-18 21:57N 18°01' W 063°03'0 0.0
2018-Jan-18 21:30N 18°01' W 063°03'0 0.0
2018-Jan-18 20:58N 18°01' W 063°03'0 0.0
2018-Jan-18 20:27N 18°01' W 063°03'0 0.0
2018-Jan-18 19:57N 18°01' W 063°03'0 0.0
2018-Jan-18 19:15N 18°01' W 063°03'0 0.0
2018-Jan-18 19:00N 18°01' W 063°03'0 0.0
2018-Jan-18 18:30N 18°01' W 063°03'0 0.0
2018-Jan-18 18:00N 18°01' W 063°03'0 0.0
2018-Jan-18 17:30N 18°01' W 063°03'0 0.0
2018-Jan-18 17:00N 18°01' W 063°03'0 0.0
2018-Jan-18 16:30N 18°01' W 063°03'0 0.1
2018-Jan-18 15:48N 18°01' W 063°03'0 0.0
2018-Jan-18 15:22N 18°01' W 063°03'0 0.0
2018-Jan-18 14:33N 18°01' W 063°03'0 0.0
2018-Jan-18 14:07N 18°01' W 063°03'0 0.0
2018-Jan-18 13:55N 18°01' W 063°03'0 0.0
2018-Jan-18 13:25N 18°01' W 063°03'0 0.0
2018-Jan-18 12:54N 18°01' W 063°03'0 0.0
2018-Jan-18 12:25N 18°01' W 063°03'0 0.5
2018-Jan-18 11:58N 18°01' W 063°03'1 1.0
2018-Jan-18 11:23N 18°01' W 063°03'0 0.0
2018-Jan-18 10:53N 18°01' W 063°03'0 0.0
2018-Jan-18 10:26N 18°01' W 063°03'0 0.0
2018-Jan-18 09:26N 18°01' W 063°03'0 0.0
2018-Jan-18 08:59N 18°01' W 063°03'0 0.0
2018-Jan-18 08:27N 18°01' W 063°03'1 1.3
2018-Jan-18 08:00N 18°00' W 063°04'4 7.4
2018-Jan-18 07:28N 17°57' W 063°05'6 9.8
2018-Jan-18 06:54N 17°51' W 063°05'66 9.5
2018-Jan-18 00:01N 16°57' W 062°27'110.5
2018-Jan-17 23:56N 16°56' W 062°26'  
2018-Jan-12 14:41N 18°01' W 063°03'0 0.0
2018-Jan-12 12:41N 18°01' W 063°03'0 0.0
2018-Jan-12 12:30N 18°01' W 063°03'1 1.7
2018-Jan-12 11:55N 18°00' W 063°04'3 7.3
2018-Jan-12 11:29N 17°57' W 063°05'4 9.3
2018-Jan-12 11:00N 17°53' W 063°05'5 9.5
2018-Jan-12 10:29N 17°48' W 063°05'7 9.4
2018-Jan-12 09:47N 17°41' W 063°05'4 9.3
2018-Jan-12 09:24N 17°38' W 063°04'33 6.6
2018-Jan-12 04:28N 17°11' W 062°45'32 5.8
2018-Jan-11 22:58N 17°07' W 062°12'510.1
2018-Jan-11 22:30N 17°08' W 062°07'510.1
2018-Jan-11 22:00N 17°09' W 062°02'510.0
2018-Jan-11 21:30N 17°10' W 061°57'3 5.2
2018-Jan-11 21:00N 17°09' W 061°54'3 5.5
2018-Jan-11 20:29N 17°08' W 061°51'0 0.0
2018-Jan-11 19:56N 17°08' W 061°51'0 0.0
2018-Jan-11 19:29N 17°08' W 061°51'0 0.0
2018-Jan-11 18:59N 17°08' W 061°51'0 0.0
2018-Jan-11 18:29N 17°08' W 061°51'0 0.0
2018-Jan-11 17:59N 17°08' W 061°51'0 0.2
2018-Jan-11 17:30N 17°07' W 061°51'4 7.2
2018-Jan-11 17:00N 17°09' W 061°55'4 8.5
2018-Jan-11 16:30N 17°09' W 061°59'4 8.5
2018-Jan-11 16:00N 17°08' W 062°04'4 8.1
2018-Jan-11 15:30N 17°08' W 062°08'29 7.5
2018-Jan-11 11:37N 17°04' W 062°38'3 8.0
2018-Jan-11 11:18N 17°05' W 062°40'3 8.6
2018-Jan-11 10:59N 17°07' W 062°42'21 8.6
2018-Jan-11 08:33N 17°22' W 062°58'0 8.9
2018-Jan-11 08:30N 17°22' W 062°58'9 8.2
2018-Jan-11 07:25N 17°30' W 063°03'5 9.1
2018-Jan-11 06:55N 17°34' W 063°03'4 9.1
2018-Jan-11 06:30N 17°38' W 063°02'5 9.0
2018-Jan-11 05:57N 17°43' W 063°00'4 7.5
2018-Jan-11 05:29N 17°46' W 063°02'4 7.5
2018-Jan-11 04:57N 17°50' W 063°03'4 7.6
2018-Jan-11 04:29N 17°53' W 063°05'4 7.9
2018-Jan-11 03:59N 17°56' W 063°07'4 6.5
2018-Jan-11 03:20N 18°00' W 063°04'2 4.8
2018-Jan-11 02:58N 18°00' W 063°03'0 0.0
2018-Jan-11 02:29N 18°00' W 063°03'0 0.4
2018-Jan-11 01:53N 18°01' W 063°03'0 0.0
2018-Jan-11 01:25N 18°01' W 063°03'0 0.0
2018-Jan-11 00:57N 18°01' W 063°03'0 0.0
2018-Jan-11 00:29N 18°01' W 063°03'0 0.0
2018-Jan-10 23:56N 18°01' W 063°03'0 0.0
2018-Jan-10 23:27N 18°01' W 063°03'0 0.0
2018-Jan-10 22:52N 18°01' W 063°03'0 0.0
2018-Jan-10 22:27N 18°01' W 063°03'0 0.2
2018-Jan-10 19:22N 18°00' W 063°03'2 5.5
2018-Jan-10 18:59N 18°00' W 063°05'4 8.8
2018-Jan-10 18:30N 18°02' W 063°10'4 8.1
2018-Jan-10 18:00N 18°05' W 063°12'5 9.4
2018-Jan-10 17:30N 18°10' W 063°13'5 9.5
2018-Jan-10 16:59N 18°12' W 063°08'2 0.3
2018-Jan-10 10:19N 18°12' W 063°06'0 0.1
2018-Jan-10 09:57N 18°12' W 063°06'0 0.0
2018-Jan-10 09:26N 18°12' W 063°06'1 0.1
2018-Jan-10 02:31N 18°12' W 063°07'0 7.9
2018-Jan-10 02:29N 18°12' W 063°07'4 9.2
2018-Jan-10 02:00N 18°11' W 063°12'4 8.5
2018-Jan-10 01:30N 18°06' W 063°12'5 9.5
2018-Jan-10 00:59N 18°02' W 063°10'510.1
2018-Jan-10 00:27N 18°00' W 063°04'2 1.4
2018-Jan-09 23:16N 18°01' W 063°03'0 0.0
2018-Jan-09 23:00N 18°01' W 063°03'0 0.0
2018-Jan-09 22:21N 18°01' W 063°03'0 0.0
2018-Jan-09 21:51N 18°01' W 063°03'0 0.0
2018-Jan-09 21:30N 18°01' W 063°03'0 0.1
2018-Jan-09 18:24N 18°01' W 063°03'1 0.2
2018-Jan-09 15:27N 18°01' W 063°03'0 0.0
2018-Jan-09 15:00N 18°01' W 063°03'0 0.0
2018-Jan-09 12:33N 18°01' W 063°03'0 0.0
2018-Jan-09 12:12N 18°01' W 063°03'0 0.0
2018-Jan-09 11:57N 18°01' W 063°03'0 0.0
2018-Jan-09 09:49N 18°01' W 063°03'0 0.0
2018-Jan-09 08:51N 18°01' W 063°03'0 0.0
2018-Jan-09 07:33N 18°01' W 063°03'0 0.0
2018-Jan-09 04:39N 18°01' W 063°03'0 0.0
2018-Jan-09 04:24N 18°01' W 063°03'0 0.0
2018-Jan-09 03:39N 18°01' W 063°03'0 0.0
2018-Jan-09 03:12N 18°01' W 063°03'0 0.0
2018-Jan-09 02:42N 18°01' W 063°03'0 0.0
2018-Jan-09 02:27N 18°01' W 063°03'  
Track history (hours):
 
Tides and Currents Weather Stations Pressure Air Temp Water Temp Dewpoint Dewpoint Depression Visibility Wind Speed Wind Dir Waves Ship Positions

Emprendedora

Last reported at 2018-Jan-19 01:00 UTC. Time now 2018-Jan-19 01:15 UTC.
Position N 17°55' W 063°05'.

Length 77 m; draft 3.1 m.

Type: . MMSI: 325631000.

Date/timePositionNaut miles runAvg speedWind from/ knotsBaromVisibWave heightAir tempDewpointWater temp
2018-Jan-19 01:00N 17°55' W 063°05'5 9.3
2018-Jan-19 00:30N 17°59' W 063°05'2 4.4
2018-Jan-18 23:58N 18°01' W 063°03'0 0.0
2018-Jan-18 23:30N 18°01' W 063°03'0 0.0
2018-Jan-18 22:46N 18°01' W 063°03'0 0.0
2018-Jan-18 22:30N 18°01' W 063°03'0 0.0
2018-Jan-18 21:57N 18°01' W 063°03'0 0.0
2018-Jan-18 21:30N 18°01' W 063°03'0 0.0
2018-Jan-18 20:58N 18°01' W 063°03'0 0.0
2018-Jan-18 20:27N 18°01' W 063°03'0 0.0
2018-Jan-18 19:57N 18°01' W 063°03'0 0.0
2018-Jan-18 19:15N 18°01' W 063°03'0 0.0
2018-Jan-18 19:00N 18°01' W 063°03'0 0.0
2018-Jan-18 18:30N 18°01' W 063°03'0 0.0
2018-Jan-18 18:00N 18°01' W 063°03'0 0.0
2018-Jan-18 17:30N 18°01' W 063°03'0 0.0
2018-Jan-18 17:00N 18°01' W 063°03'0 0.0
2018-Jan-18 16:30N 18°01' W 063°03'0 0.1
2018-Jan-18 15:48N 18°01' W 063°03'0 0.0
2018-Jan-18 15:22N 18°01' W 063°03'0 0.0
2018-Jan-18 14:33N 18°01' W 063°03'0 0.0
2018-Jan-18 14:07N 18°01' W 063°03'0 0.0
2018-Jan-18 13:55N 18°01' W 063°03'0 0.0
2018-Jan-18 13:25N 18°01' W 063°03'0 0.0
2018-Jan-18 12:54N 18°01' W 063°03'0 0.0
2018-Jan-18 12:25N 18°01' W 063°03'0 0.5
2018-Jan-18 11:58N 18°01' W 063°03'1 1.0
2018-Jan-18 11:23N 18°01' W 063°03'0 0.0
2018-Jan-18 10:53N 18°01' W 063°03'0 0.0
2018-Jan-18 10:26N 18°01' W 063°03'0 0.0
2018-Jan-18 09:26N 18°01' W 063°03'0 0.0
2018-Jan-18 08:59N 18°01' W 063°03'0 0.0
2018-Jan-18 08:27N 18°01' W 063°03'1 1.3
2018-Jan-18 08:00N 18°00' W 063°04'4 7.4
2018-Jan-18 07:28N 17°57' W 063°05'6 9.8
2018-Jan-18 06:54N 17°51' W 063°05'66 9.5
2018-Jan-18 00:01N 16°57' W 062°27'110.5
2018-Jan-17 23:56N 16°56' W 062°26'  
2018-Jan-12 14:41N 18°01' W 063°03'0 0.0
2018-Jan-12 12:41N 18°01' W 063°03'0 0.0
2018-Jan-12 12:30N 18°01' W 063°03'1 1.7
2018-Jan-12 11:55N 18°00' W 063°04'3 7.3
2018-Jan-12 11:29N 17°57' W 063°05'4 9.3
2018-Jan-12 11:00N 17°53' W 063°05'5 9.5
2018-Jan-12 10:29N 17°48' W 063°05'7 9.4
2018-Jan-12 09:47N 17°41' W 063°05'4 9.3
2018-Jan-12 09:24N 17°38' W 063°04'33 6.6
2018-Jan-12 04:28N 17°11' W 062°45'32 5.8
2018-Jan-11 22:58N 17°07' W 062°12'510.1
2018-Jan-11 22:30N 17°08' W 062°07'510.1
2018-Jan-11 22:00N 17°09' W 062°02'510.0
2018-Jan-11 21:30N 17°10' W 061°57'3 5.2
2018-Jan-11 21:00N 17°09' W 061°54'3 5.5
2018-Jan-11 20:29N 17°08' W 061°51'0 0.0
2018-Jan-11 19:56N 17°08' W 061°51'0 0.0
2018-Jan-11 19:29N 17°08' W 061°51'0 0.0
2018-Jan-11 18:59N 17°08' W 061°51'0 0.0
2018-Jan-11 18:29N 17°08' W 061°51'0 0.0
2018-Jan-11 17:59N 17°08' W 061°51'0 0.2
2018-Jan-11 17:30N 17°07' W 061°51'4 7.2
2018-Jan-11 17:00N 17°09' W 061°55'4 8.5
2018-Jan-11 16:30N 17°09' W 061°59'4 8.5
2018-Jan-11 16:00N 17°08' W 062°04'4 8.1
2018-Jan-11 15:30N 17°08' W 062°08'29 7.5
2018-Jan-11 11:37N 17°04' W 062°38'3 8.0
2018-Jan-11 11:18N 17°05' W 062°40'3 8.6
2018-Jan-11 10:59N 17°07' W 062°42'21 8.6
2018-Jan-11 08:33N 17°22' W 062°58'0 8.9
2018-Jan-11 08:30N 17°22' W 062°58'9 8.2
2018-Jan-11 07:25N 17°30' W 063°03'5 9.1
2018-Jan-11 06:55N 17°34' W 063°03'4 9.1
2018-Jan-11 06:30N 17°38' W 063°02'5 9.0
2018-Jan-11 05:57N 17°43' W 063°00'4 7.5
2018-Jan-11 05:29N 17°46' W 063°02'4 7.5
2018-Jan-11 04:57N 17°50' W 063°03'4 7.6
2018-Jan-11 04:29N 17°53' W 063°05'4 7.9
2018-Jan-11 03:59N 17°56' W 063°07'4 6.5
2018-Jan-11 03:20N 18°00' W 063°04'2 4.8
2018-Jan-11 02:58N 18°00' W 063°03'0 0.0
2018-Jan-11 02:29N 18°00' W 063°03'0 0.4
2018-Jan-11 01:53N 18°01' W 063°03'0 0.0
2018-Jan-11 01:25N 18°01' W 063°03'0 0.0
2018-Jan-11 00:57N 18°01' W 063°03'0 0.0
2018-Jan-11 00:29N 18°01' W 063°03'0 0.0
2018-Jan-10 23:56N 18°01' W 063°03'0 0.0
2018-Jan-10 23:27N 18°01' W 063°03'0 0.0
2018-Jan-10 22:52N 18°01' W 063°03'0 0.0
2018-Jan-10 22:27N 18°01' W 063°03'0 0.2
2018-Jan-10 19:22N 18°00' W 063°03'2 5.5
2018-Jan-10 18:59N 18°00' W 063°05'4 8.8
2018-Jan-10 18:30N 18°02' W 063°10'4 8.1
2018-Jan-10 18:00N 18°05' W 063°12'5 9.4
2018-Jan-10 17:30N 18°10' W 063°13'5 9.5
2018-Jan-10 16:59N 18°12' W 063°08'2 0.3
2018-Jan-10 10:19N 18°12' W 063°06'0 0.1
2018-Jan-10 09:57N 18°12' W 063°06'0 0.0
2018-Jan-10 09:26N 18°12' W 063°06'1 0.1
2018-Jan-10 02:31N 18°12' W 063°07'0 7.9
2018-Jan-10 02:29N 18°12' W 063°07'4 9.2
2018-Jan-10 02:00N 18°11' W 063°12'4 8.5
2018-Jan-10 01:30N 18°06' W 063°12'5 9.5
2018-Jan-10 00:59N 18°02' W 063°10'510.1
2018-Jan-10 00:27N 18°00' W 063°04'2 1.4
2018-Jan-09 23:16N 18°01' W 063°03'0 0.0
2018-Jan-09 23:00N 18°01' W 063°03'0 0.0
2018-Jan-09 22:21N 18°01' W 063°03'0 0.0
2018-Jan-09 21:51N 18°01' W 063°03'0 0.0
2018-Jan-09 21:30N 18°01' W 063°03'0 0.1
2018-Jan-09 18:24N 18°01' W 063°03'1 0.2
2018-Jan-09 15:27N 18°01' W 063°03'0 0.0
2018-Jan-09 15:00N 18°01' W 063°03'0 0.0
2018-Jan-09 12:33N 18°01' W 063°03'0 0.0
2018-Jan-09 12:12N 18°01' W 063°03'0 0.0
2018-Jan-09 11:57N 18°01' W 063°03'0 0.0
2018-Jan-09 09:49N 18°01' W 063°03'0 0.0
2018-Jan-09 08:51N 18°01' W 063°03'0 0.0
2018-Jan-09 07:33N 18°01' W 063°03'0 0.0
2018-Jan-09 04:39N 18°01' W 063°03'0 0.0
2018-Jan-09 04:24N 18°01' W 063°03'0 0.0
2018-Jan-09 03:39N 18°01' W 063°03'0 0.0
2018-Jan-09 03:12N 18°01' W 063°03'0 0.0
2018-Jan-09 02:42N 18°01' W 063°03'0 0.0
2018-Jan-09 02:27N 18°01' W 063°03'  

Dump ship's entire track history